sensor_id;sensor_type;location;lat;lon;timestamp;P1;durP1;ratioP1;P2;durP2;ratioP2
64598;SDS011;51008;51.504;11.548;2024-01-16T00:04:05;6.13;;;3.22;;
64598;SDS011;51008;51.504;11.548;2024-01-16T00:09:07;8.15;;;2.97;;
64598;SDS011;51008;51.504;11.548;2024-01-16T00:14:13;10.93;;;3.50;;
64598;SDS011;51008;51.504;11.548;2024-01-16T00:19:14;8.70;;;3.28;;
64598;SDS011;51008;51.504;11.548;2024-01-16T00:24:15;7.30;;;3.05;;
64598;SDS011;51008;51.504;11.548;2024-01-16T00:29:17;7.78;;;3.08;;
64598;SDS011;51008;51.504;11.548;2024-01-16T00:34:19;6.20;;;2.58;;
64598;SDS011;51008;51.504;11.548;2024-01-16T00:39:20;9.55;;;2.72;;
64598;SDS011;51008;51.504;11.548;2024-01-16T00:44:21;4.30;;;2.20;;
64598;SDS011;51008;51.504;11.548;2024-01-16T00:49:22;4.18;;;2.15;;
64598;SDS011;51008;51.504;11.548;2024-01-16T00:54:23;5.10;;;1.92;;
64598;SDS011;51008;51.504;11.548;2024-01-16T00:59:25;5.93;;;2.10;;
64598;SDS011;51008;51.504;11.548;2024-01-16T01:04:45;8.85;;;2.17;;
64598;SDS011;51008;51.504;11.548;2024-01-16T01:09:46;5.80;;;1.60;;
64598;SDS011;51008;51.504;11.548;2024-01-16T01:14:48;4.90;;;1.50;;
64598;SDS011;51008;51.504;11.548;2024-01-16T01:19:49;5.28;;;1.92;;
64598;SDS011;51008;51.504;11.548;2024-01-16T01:24:50;3.90;;;1.65;;
64598;SDS011;51008;51.504;11.548;2024-01-16T01:29:51;4.85;;;1.70;;
64598;SDS011;51008;51.504;11.548;2024-01-16T01:34:52;7.57;;;2.00;;
64598;SDS011;51008;51.504;11.548;2024-01-16T01:39:53;5.50;;;2.00;;
64598;SDS011;51008;51.504;11.548;2024-01-16T01:45:14;3.05;;;1.70;;
64598;SDS011;51008;51.504;11.548;2024-01-16T01:50:15;3.22;;;1.50;;
64598;SDS011;51008;51.504;11.548;2024-01-16T01:55:16;5.35;;;1.67;;
64598;SDS011;51008;51.504;11.548;2024-01-16T02:00:17;4.82;;;1.70;;
64598;SDS011;51008;51.504;11.548;2024-01-16T02:05:18;4.65;;;1.58;;
64598;SDS011;51008;51.504;11.548;2024-01-16T02:10:20;7.03;;;1.95;;
64598;SDS011;51008;51.504;11.548;2024-01-16T02:15:23;5.38;;;1.20;;
64598;SDS011;51008;51.504;11.548;2024-01-16T02:20:24;6.55;;;1.63;;
64598;SDS011;51008;51.504;11.548;2024-01-16T02:25:25;3.03;;;1.55;;
64598;SDS011;51008;51.504;11.548;2024-01-16T02:30:26;4.13;;;1.48;;
64598;SDS011;51008;51.504;11.548;2024-01-16T02:35:27;3.90;;;1.67;;
64598;SDS011;51008;51.504;11.548;2024-01-16T02:40:28;6.25;;;1.95;;
64598;SDS011;51008;51.504;11.548;2024-01-16T02:45:29;4.72;;;2.05;;
64598;SDS011;51008;51.504;11.548;2024-01-16T02:50:30;4.90;;;1.88;;
64598;SDS011;51008;51.504;11.548;2024-01-16T02:55:31;5.88;;;1.70;;
64598;SDS011;51008;51.504;11.548;2024-01-16T03:00:32;5.53;;;1.70;;
64598;SDS011;51008;51.504;11.548;2024-01-16T03:05:33;5.10;;;1.55;;
64598;SDS011;51008;51.504;11.548;2024-01-16T03:10:35;6.45;;;1.60;;
64598;SDS011;51008;51.504;11.548;2024-01-16T03:15:36;4.07;;;1.42;;
64598;SDS011;51008;51.504;11.548;2024-01-16T03:20:37;3.78;;;1.33;;
64598;SDS011;51008;51.504;11.548;2024-01-16T03:25:38;6.80;;;1.20;;
64598;SDS011;51008;51.504;11.548;2024-01-16T03:30:39;5.05;;;1.58;;
64598;SDS011;51008;51.504;11.548;2024-01-16T03:35:40;7.22;;;1.60;;
64598;SDS011;51008;51.504;11.548;2024-01-16T03:40:41;6.60;;;2.25;;
64598;SDS011;51008;51.504;11.548;2024-01-16T03:45:42;6.97;;;2.33;;
64598;SDS011;51008;51.504;11.548;2024-01-16T03:50:43;7.65;;;2.55;;
64598;SDS011;51008;51.504;11.548;2024-01-16T03:55:44;7.18;;;2.40;;
64598;SDS011;51008;51.504;11.548;2024-01-16T04:00:45;5.10;;;2.08;;
64598;SDS011;51008;51.504;11.548;2024-01-16T04:05:47;4.70;;;2.30;;
64598;SDS011;51008;51.504;11.548;2024-01-16T04:10:48;7.03;;;2.10;;
64598;SDS011;51008;51.504;11.548;2024-01-16T04:15:49;10.18;;;3.42;;
64598;SDS011;51008;51.504;11.548;2024-01-16T04:20:50;9.50;;;3.00;;
64598;SDS011;51008;51.504;11.548;2024-01-16T04:25:51;7.70;;;3.15;;
64598;SDS011;51008;51.504;11.548;2024-01-16T04:30:52;9.85;;;2.80;;
64598;SDS011;51008;51.504;11.548;2024-01-16T04:35:53;7.88;;;2.92;;
64598;SDS011;51008;51.504;11.548;2024-01-16T04:41:13;8.68;;;3.15;;
64598;SDS011;51008;51.504;11.548;2024-01-16T04:46:14;8.73;;;2.47;;
64598;SDS011;51008;51.504;11.548;2024-01-16T04:51:15;11.48;;;3.90;;
64598;SDS011;51008;51.504;11.548;2024-01-16T04:56:16;5.63;;;2.42;;
64598;SDS011;51008;51.504;11.548;2024-01-16T05:01:36;8.52;;;3.00;;
64598;SDS011;51008;51.504;11.548;2024-01-16T05:06:37;9.23;;;3.10;;
64598;SDS011;51008;51.504;11.548;2024-01-16T05:11:38;8.30;;;2.88;;
64598;SDS011;51008;51.504;11.548;2024-01-16T05:16:39;8.77;;;3.40;;
64598;SDS011;51008;51.504;11.548;2024-01-16T05:21:40;9.15;;;3.13;;
64598;SDS011;51008;51.504;11.548;2024-01-16T05:27:00;8.30;;;3.00;;
64598;SDS011;51008;51.504;11.548;2024-01-16T05:32:01;6.97;;;2.15;;
64598;SDS011;51008;51.504;11.548;2024-01-16T05:37:02;9.10;;;2.25;;
64598;SDS011;51008;51.504;11.548;2024-01-16T05:42:03;8.05;;;2.17;;
64598;SDS011;51008;51.504;11.548;2024-01-16T05:47:04;8.85;;;2.38;;
64598;SDS011;51008;51.504;11.548;2024-01-16T05:52:05;9.50;;;2.38;;
64598;SDS011;51008;51.504;11.548;2024-01-16T05:57:06;7.55;;;2.33;;
64598;SDS011;51008;51.504;11.548;2024-01-16T06:02:07;13.35;;;3.50;;
64598;SDS011;51008;51.504;11.548;2024-01-16T06:07:08;9.40;;;3.30;;
64598;SDS011;51008;51.504;11.548;2024-01-16T06:12:09;11.60;;;3.90;;
64598;SDS011;51008;51.504;11.548;2024-01-16T06:17:10;15.07;;;4.78;;
64598;SDS011;51008;51.504;11.548;2024-01-16T06:22:11;13.48;;;5.43;;
64598;SDS011;51008;51.504;11.548;2024-01-16T06:27:12;12.45;;;4.65;;
64598;SDS011;51008;51.504;11.548;2024-01-16T06:32:16;15.77;;;5.03;;
64598;SDS011;51008;51.504;11.548;2024-01-16T06:37:17;14.88;;;5.03;;
64598;SDS011;51008;51.504;11.548;2024-01-16T06:42:19;11.05;;;5.13;;
64598;SDS011;51008;51.504;11.548;2024-01-16T06:47:19;13.88;;;5.10;;
64598;SDS011;51008;51.504;11.548;2024-01-16T06:52:41;12.30;;;4.47;;
64598;SDS011;51008;51.504;11.548;2024-01-16T06:57:42;14.25;;;4.43;;
64598;SDS011;51008;51.504;11.548;2024-01-16T07:02:44;13.38;;;4.25;;
64598;SDS011;51008;51.504;11.548;2024-01-16T07:07:46;17.02;;;5.05;;
64598;SDS011;51008;51.504;11.548;2024-01-16T07:12:47;15.88;;;5.75;;
64598;SDS011;51008;51.504;11.548;2024-01-16T07:17:48;12.55;;;5.40;;
64598;SDS011;51008;51.504;11.548;2024-01-16T07:22:49;11.65;;;5.68;;
64598;SDS011;51008;51.504;11.548;2024-01-16T07:27:50;19.20;;;6.13;;
64598;SDS011;51008;51.504;11.548;2024-01-16T07:32:51;12.75;;;5.75;;
64598;SDS011;51008;51.504;11.548;2024-01-16T07:37:52;12.55;;;5.20;;
64598;SDS011;51008;51.504;11.548;2024-01-16T07:42:53;8.70;;;4.45;;
64598;SDS011;51008;51.504;11.548;2024-01-16T07:47:55;13.88;;;5.72;;
64598;SDS011;51008;51.504;11.548;2024-01-16T07:52:56;10.18;;;4.88;;
64598;SDS011;51008;51.504;11.548;2024-01-16T07:57:57;11.15;;;5.28;;
64598;SDS011;51008;51.504;11.548;2024-01-16T08:02:58;10.50;;;4.72;;
64598;SDS011;51008;51.504;11.548;2024-01-16T08:07:59;16.75;;;5.43;;
64598;SDS011;51008;51.504;11.548;2024-01-16T08:13:00;16.25;;;5.07;;
64598;SDS011;51008;51.504;11.548;2024-01-16T08:18:01;15.20;;;4.95;;
64598;SDS011;51008;51.504;11.548;2024-01-16T08:23:02;11.70;;;4.55;;
64598;SDS011;51008;51.504;11.548;2024-01-16T08:28:03;8.48;;;4.65;;
64598;SDS011;51008;51.504;11.548;2024-01-16T08:33:06;12.65;;;4.90;;
64598;SDS011;51008;51.504;11.548;2024-01-16T08:38:08;12.48;;;3.97;;
64598;SDS011;51008;51.504;11.548;2024-01-16T08:43:15;13.13;;;4.95;;
64598;SDS011;51008;51.504;11.548;2024-01-16T08:48:21;10.73;;;4.20;;
64598;SDS011;51008;51.504;11.548;2024-01-16T08:53:23;9.23;;;3.88;;
64598;SDS011;51008;51.504;11.548;2024-01-16T08:58:24;8.85;;;4.40;;
64598;SDS011;51008;51.504;11.548;2024-01-16T09:03:25;10.95;;;4.10;;
64598;SDS011;51008;51.504;11.548;2024-01-16T09:08:26;13.25;;;4.32;;
64598;SDS011;51008;51.504;11.548;2024-01-16T09:13:27;9.55;;;4.18;;
64598;SDS011;51008;51.504;11.548;2024-01-16T09:18:28;13.00;;;5.07;;
64598;SDS011;51008;51.504;11.548;2024-01-16T09:23:29;10.48;;;4.78;;
64598;SDS011;51008;51.504;11.548;2024-01-16T09:28:30;14.75;;;4.55;;
64598;SDS011;51008;51.504;11.548;2024-01-16T09:33:33;14.45;;;4.93;;
64598;SDS011;51008;51.504;11.548;2024-01-16T09:38:34;12.10;;;4.53;;
64598;SDS011;51008;51.504;11.548;2024-01-16T09:43:35;14.35;;;5.47;;
64598;SDS011;51008;51.504;11.548;2024-01-16T09:48:39;14.18;;;5.75;;
64598;SDS011;51008;51.504;11.548;2024-01-16T09:53:42;12.68;;;4.90;;
64598;SDS011;51008;51.504;11.548;2024-01-16T09:58:43;13.10;;;4.88;;
64598;SDS011;51008;51.504;11.548;2024-01-16T10:03:45;19.17;;;5.50;;
64598;SDS011;51008;51.504;11.548;2024-01-16T10:08:46;11.90;;;4.80;;
64598;SDS011;51008;51.504;11.548;2024-01-16T10:13:47;19.98;;;4.97;;
64598;SDS011;51008;51.504;11.548;2024-01-16T10:18:48;8.60;;;4.18;;
64598;SDS011;51008;51.504;11.548;2024-01-16T10:23:50;9.60;;;4.25;;
64598;SDS011;51008;51.504;11.548;2024-01-16T10:28:51;16.67;;;6.22;;
64598;SDS011;51008;51.504;11.548;2024-01-16T10:34:00;9.98;;;4.30;;
64598;SDS011;51008;51.504;11.548;2024-01-16T10:39:04;12.45;;;4.63;;
64598;SDS011;51008;51.504;11.548;2024-01-16T10:44:07;13.73;;;4.70;;
64598;SDS011;51008;51.504;11.548;2024-01-16T10:49:08;8.70;;;3.78;;
64598;SDS011;51008;51.504;11.548;2024-01-16T10:54:11;10.57;;;3.63;;
64598;SDS011;51008;51.504;11.548;2024-01-16T10:59:30;10.48;;;3.70;;
64598;SDS011;51008;51.504;11.548;2024-01-16T11:04:40;11.48;;;3.72;;
64598;SDS011;51008;51.504;11.548;2024-01-16T11:09:43;9.27;;;3.53;;
64598;SDS011;51008;51.504;11.548;2024-01-16T11:14:45;11.98;;;4.10;;
64598;SDS011;51008;51.504;11.548;2024-01-16T11:19:52;9.32;;;3.80;;
64598;SDS011;51008;51.504;11.548;2024-01-16T11:25:09;9.88;;;4.53;;
64598;SDS011;51008;51.504;11.548;2024-01-16T11:30:28;11.93;;;3.95;;
64598;SDS011;51008;51.504;11.548;2024-01-16T11:35:34;11.52;;;4.30;;
64598;SDS011;51008;51.504;11.548;2024-01-16T11:40:37;9.38;;;4.75;;
64598;SDS011;51008;51.504;11.548;2024-01-16T11:50:57;10.57;;;4.30;;
64598;SDS011;51008;51.504;11.548;2024-01-16T12:01:21;13.48;;;5.00;;
64598;SDS011;51008;51.504;11.548;2024-01-16T12:06:22;14.63;;;4.97;;
64598;SDS011;51008;51.504;11.548;2024-01-16T12:11:43;13.65;;;5.10;;
64598;SDS011;51008;51.504;11.548;2024-01-16T12:16:44;8.40;;;4.88;;
64598;SDS011;51008;51.504;11.548;2024-01-16T12:21:46;8.95;;;4.55;;
64598;SDS011;51008;51.504;11.548;2024-01-16T12:26:47;14.50;;;5.35;;
64598;SDS011;51008;51.504;11.548;2024-01-16T12:31:49;11.23;;;5.45;;
64598;SDS011;51008;51.504;11.548;2024-01-16T12:36:50;12.27;;;6.57;;
64598;SDS011;51008;51.504;11.548;2024-01-16T12:42:05;12.45;;;6.05;;
64598;SDS011;51008;51.504;11.548;2024-01-16T12:47:06;14.95;;;6.88;;
64598;SDS011;51008;51.504;11.548;2024-01-16T12:52:23;12.05;;;6.18;;
64598;SDS011;51008;51.504;11.548;2024-01-16T12:57:24;11.02;;;5.95;;
64598;SDS011;51008;51.504;11.548;2024-01-16T13:02:25;12.68;;;5.47;;
64598;SDS011;51008;51.504;11.548;2024-01-16T13:07:26;12.02;;;6.05;;
64598;SDS011;51008;51.504;11.548;2024-01-16T13:12:27;11.75;;;5.53;;
64598;SDS011;51008;51.504;11.548;2024-01-16T13:17:28;12.05;;;5.85;;
64598;SDS011;51008;51.504;11.548;2024-01-16T13:22:29;10.75;;;5.78;;
64598;SDS011;51008;51.504;11.548;2024-01-16T13:27:30;10.20;;;5.57;;
64598;SDS011;51008;51.504;11.548;2024-01-16T13:32:31;10.73;;;5.53;;
64598;SDS011;51008;51.504;11.548;2024-01-16T13:37:32;11.95;;;5.95;;
64598;SDS011;51008;51.504;11.548;2024-01-16T13:42:34;13.00;;;5.90;;
64598;SDS011;51008;51.504;11.548;2024-01-16T13:47:35;11.40;;;5.82;;
64598;SDS011;51008;51.504;11.548;2024-01-16T13:52:36;11.18;;;5.72;;
64598;SDS011;51008;51.504;11.548;2024-01-16T13:57:37;9.98;;;5.10;;
64598;SDS011;51008;51.504;11.548;2024-01-16T14:02:44;11.93;;;5.10;;
64598;SDS011;51008;51.504;11.548;2024-01-16T14:07:48;10.80;;;4.97;;
64598;SDS011;51008;51.504;11.548;2024-01-16T14:12:51;12.50;;;5.20;;
64598;SDS011;51008;51.504;11.548;2024-01-16T14:17:53;8.35;;;4.78;;
64598;SDS011;51008;51.504;11.548;2024-01-16T14:22:56;9.70;;;5.53;;
64598;SDS011;51008;51.504;11.548;2024-01-16T14:28:03;8.20;;;4.38;;
64598;SDS011;51008;51.504;11.548;2024-01-16T14:33:04;10.88;;;4.13;;
64598;SDS011;51008;51.504;11.548;2024-01-16T14:38:05;9.50;;;3.90;;
64598;SDS011;51008;51.504;11.548;2024-01-16T14:43:06;14.82;;;4.57;;
64598;SDS011;51008;51.504;11.548;2024-01-16T14:48:07;9.07;;;4.13;;
64598;SDS011;51008;51.504;11.548;2024-01-16T14:53:08;7.75;;;3.80;;
64598;SDS011;51008;51.504;11.548;2024-01-16T14:58:09;12.18;;;3.90;;
64598;SDS011;51008;51.504;11.548;2024-01-16T15:03:11;10.73;;;3.50;;
64598;SDS011;51008;51.504;11.548;2024-01-16T15:08:11;11.73;;;3.80;;
64598;SDS011;51008;51.504;11.548;2024-01-16T15:13:13;8.10;;;4.18;;
64598;SDS011;51008;51.504;11.548;2024-01-16T15:18:14;13.13;;;4.70;;
64598;SDS011;51008;51.504;11.548;2024-01-16T15:23:15;10.75;;;3.97;;
64598;SDS011;51008;51.504;11.548;2024-01-16T15:28:16;8.85;;;4.20;;
64598;SDS011;51008;51.504;11.548;2024-01-16T15:33:17;11.45;;;4.93;;
64598;SDS011;51008;51.504;11.548;2024-01-16T15:38:18;11.05;;;4.72;;
64598;SDS011;51008;51.504;11.548;2024-01-16T15:43:19;7.15;;;3.72;;
64598;SDS011;51008;51.504;11.548;2024-01-16T15:48:20;13.27;;;5.35;;
64598;SDS011;51008;51.504;11.548;2024-01-16T15:53:21;15.30;;;5.25;;
64598;SDS011;51008;51.504;11.548;2024-01-16T15:58:22;12.75;;;5.53;;
64598;SDS011;51008;51.504;11.548;2024-01-16T16:03:23;9.25;;;5.38;;
64598;SDS011;51008;51.504;11.548;2024-01-16T16:08:24;14.45;;;6.80;;
64598;SDS011;51008;51.504;11.548;2024-01-16T16:13:25;15.23;;;7.13;;
64598;SDS011;51008;51.504;11.548;2024-01-16T16:18:26;17.15;;;7.68;;
64598;SDS011;51008;51.504;11.548;2024-01-16T16:23:27;16.80;;;6.82;;
64598;SDS011;51008;51.504;11.548;2024-01-16T16:28:28;18.67;;;6.70;;
64598;SDS011;51008;51.504;11.548;2024-01-16T16:33:29;16.05;;;6.93;;
64598;SDS011;51008;51.504;11.548;2024-01-16T16:38:30;14.93;;;6.80;;
64598;SDS011;51008;51.504;11.548;2024-01-16T16:43:31;13.75;;;7.53;;
64598;SDS011;51008;51.504;11.548;2024-01-16T16:48:32;15.40;;;7.28;;
64598;SDS011;51008;51.504;11.548;2024-01-16T16:53:33;14.60;;;7.32;;
64598;SDS011;51008;51.504;11.548;2024-01-16T16:58:34;17.25;;;9.48;;
64598;SDS011;51008;51.504;11.548;2024-01-16T17:03:40;21.20;;;8.13;;
64598;SDS011;51008;51.504;11.548;2024-01-16T17:08:41;15.45;;;8.35;;
64598;SDS011;51008;51.504;11.548;2024-01-16T17:13:42;21.25;;;9.10;;
64598;SDS011;51008;51.504;11.548;2024-01-16T17:18:44;17.58;;;8.30;;
64598;SDS011;51008;51.504;11.548;2024-01-16T17:23:45;18.55;;;8.18;;
64598;SDS011;51008;51.504;11.548;2024-01-16T17:28:46;18.58;;;8.23;;
64598;SDS011;51008;51.504;11.548;2024-01-16T17:33:47;13.77;;;6.30;;
64598;SDS011;51008;51.504;11.548;2024-01-16T17:38:48;16.40;;;7.65;;
64598;SDS011;51008;51.504;11.548;2024-01-16T17:43:49;18.05;;;7.70;;
64598;SDS011;51008;51.504;11.548;2024-01-16T17:48:50;14.68;;;6.28;;
64598;SDS011;51008;51.504;11.548;2024-01-16T17:53:51;11.73;;;6.03;;
64598;SDS011;51008;51.504;11.548;2024-01-16T17:58:52;12.68;;;5.75;;
64598;SDS011;51008;51.504;11.548;2024-01-16T18:03:53;11.35;;;5.78;;
64598;SDS011;51008;51.504;11.548;2024-01-16T18:08:54;14.95;;;6.03;;
64598;SDS011;51008;51.504;11.548;2024-01-16T18:13:55;11.50;;;5.25;;
64598;SDS011;51008;51.504;11.548;2024-01-16T18:18:56;12.27;;;4.88;;
64598;SDS011;51008;51.504;11.548;2024-01-16T18:23:57;11.70;;;5.55;;
64598;SDS011;51008;51.504;11.548;2024-01-16T18:28:58;17.48;;;5.53;;
64598;SDS011;51008;51.504;11.548;2024-01-16T18:33:59;15.32;;;5.45;;
64598;SDS011;51008;51.504;11.548;2024-01-16T18:39:00;10.23;;;4.80;;
64598;SDS011;51008;51.504;11.548;2024-01-16T18:44:02;14.38;;;5.13;;
64598;SDS011;51008;51.504;11.548;2024-01-16T18:49:03;12.60;;;5.13;;
64598;SDS011;51008;51.504;11.548;2024-01-16T18:54:04;10.05;;;4.57;;
64598;SDS011;51008;51.504;11.548;2024-01-16T18:59:05;9.98;;;5.00;;
64598;SDS011;51008;51.504;11.548;2024-01-16T19:04:06;11.32;;;5.07;;
64598;SDS011;51008;51.504;11.548;2024-01-16T19:09:08;10.55;;;5.05;;
64598;SDS011;51008;51.504;11.548;2024-01-16T19:14:28;13.68;;;4.97;;
64598;SDS011;51008;51.504;11.548;2024-01-16T19:19:29;10.88;;;5.15;;
64598;SDS011;51008;51.504;11.548;2024-01-16T19:24:30;12.82;;;5.20;;
64598;SDS011;51008;51.504;11.548;2024-01-16T19:29:31;17.70;;;4.93;;
64598;SDS011;51008;51.504;11.548;2024-01-16T19:34:32;12.95;;;5.30;;
64598;SDS011;51008;51.504;11.548;2024-01-16T19:39:32;12.73;;;4.75;;
64598;SDS011;51008;51.504;11.548;2024-01-16T19:44:33;9.93;;;5.03;;
64598;SDS011;51008;51.504;11.548;2024-01-16T19:49:37;10.93;;;5.38;;
64598;SDS011;51008;51.504;11.548;2024-01-16T19:54:38;11.20;;;5.47;;
64598;SDS011;51008;51.504;11.548;2024-01-16T19:59:39;12.93;;;5.90;;
64598;SDS011;51008;51.504;11.548;2024-01-16T20:04:40;12.00;;;5.57;;
64598;SDS011;51008;51.504;11.548;2024-01-16T20:09:41;13.38;;;5.60;;
64598;SDS011;51008;51.504;11.548;2024-01-16T20:14:42;10.00;;;5.03;;
64598;SDS011;51008;51.504;11.548;2024-01-16T20:19:43;10.90;;;4.88;;
64598;SDS011;51008;51.504;11.548;2024-01-16T20:24:44;13.63;;;5.18;;
64598;SDS011;51008;51.504;11.548;2024-01-16T20:29:45;12.20;;;5.40;;
64598;SDS011;51008;51.504;11.548;2024-01-16T20:34:46;10.10;;;5.60;;
64598;SDS011;51008;51.504;11.548;2024-01-16T20:39:47;13.73;;;5.63;;
64598;SDS011;51008;51.504;11.548;2024-01-16T20:44:48;11.48;;;5.50;;
64598;SDS011;51008;51.504;11.548;2024-01-16T20:49:49;9.95;;;4.88;;
64598;SDS011;51008;51.504;11.548;2024-01-16T20:54:51;15.57;;;5.00;;
64598;SDS011;51008;51.504;11.548;2024-01-16T20:59:51;14.45;;;6.00;;
64598;SDS011;51008;51.504;11.548;2024-01-16T21:04:52;10.93;;;4.85;;
64598;SDS011;51008;51.504;11.548;2024-01-16T21:09:53;11.48;;;4.95;;
64598;SDS011;51008;51.504;11.548;2024-01-16T21:14:54;9.00;;;4.65;;
64598;SDS011;51008;51.504;11.548;2024-01-16T21:19:55;12.65;;;4.82;;
64598;SDS011;51008;51.504;11.548;2024-01-16T21:24:58;11.00;;;5.03;;
64598;SDS011;51008;51.504;11.548;2024-01-16T21:29:59;12.73;;;4.80;;
64598;SDS011;51008;51.504;11.548;2024-01-16T21:35:00;13.73;;;4.50;;
64598;SDS011;51008;51.504;11.548;2024-01-16T21:40:02;11.93;;;4.20;;
64598;SDS011;51008;51.504;11.548;2024-01-16T21:45:04;7.72;;;3.90;;
64598;SDS011;51008;51.504;11.548;2024-01-16T21:50:06;13.15;;;4.47;;
64598;SDS011;51008;51.504;11.548;2024-01-16T21:55:07;9.73;;;4.53;;
64598;SDS011;51008;51.504;11.548;2024-01-16T22:00:08;14.18;;;4.78;;
64598;SDS011;51008;51.504;11.548;2024-01-16T22:05:10;10.27;;;4.53;;
64598;SDS011;51008;51.504;11.548;2024-01-16T22:10:11;7.32;;;4.10;;
64598;SDS011;51008;51.504;11.548;2024-01-16T22:15:11;14.02;;;4.68;;
64598;SDS011;51008;51.504;11.548;2024-01-16T22:20:12;11.63;;;5.20;;
64598;SDS011;51008;51.504;11.548;2024-01-16T22:25:13;13.90;;;4.88;;
64598;SDS011;51008;51.504;11.548;2024-01-16T22:30:14;14.43;;;4.88;;
64598;SDS011;51008;51.504;11.548;2024-01-16T22:35:15;6.80;;;4.07;;
64598;SDS011;51008;51.504;11.548;2024-01-16T22:40:16;10.82;;;5.10;;
64598;SDS011;51008;51.504;11.548;2024-01-16T22:45:17;10.75;;;4.53;;
64598;SDS011;51008;51.504;11.548;2024-01-16T22:50:18;9.85;;;4.65;;
64598;SDS011;51008;51.504;11.548;2024-01-16T22:55:19;13.63;;;4.93;;
64598;SDS011;51008;51.504;11.548;2024-01-16T23:00:20;11.05;;;4.88;;
64598;SDS011;51008;51.504;11.548;2024-01-16T23:05:21;13.82;;;5.45;;
64598;SDS011;51008;51.504;11.548;2024-01-16T23:10:22;10.45;;;4.70;;
64598;SDS011;51008;51.504;11.548;2024-01-16T23:15:23;13.20;;;5.55;;
64598;SDS011;51008;51.504;11.548;2024-01-16T23:20:24;9.15;;;5.18;;
64598;SDS011;51008;51.504;11.548;2024-01-16T23:25:25;11.93;;;5.18;;
64598;SDS011;51008;51.504;11.548;2024-01-16T23:30:26;11.93;;;5.63;;
64598;SDS011;51008;51.504;11.548;2024-01-16T23:35:27;12.95;;;5.88;;
64598;SDS011;51008;51.504;11.548;2024-01-16T23:40:28;9.63;;;5.03;;
64598;SDS011;51008;51.504;11.548;2024-01-16T23:45:29;12.00;;;6.50;;
64598;SDS011;51008;51.504;11.548;2024-01-16T23:50:30;12.90;;;6.05;;
64598;SDS011;51008;51.504;11.548;2024-01-16T23:55:31;13.00;;;6.05;;
